createdAt,value
2024-02-13T00:00:53.070Z,17.00
2024-02-13T00:03:54.205Z,17.10
2024-02-13T00:06:56.789Z,18.30
2024-02-13T00:09:57.800Z,17.20
2024-02-13T00:13:01.644Z,16.00
2024-02-13T00:16:03.937Z,15.40
2024-02-13T00:19:07.827Z,16.50
2024-02-13T00:22:12.676Z,17.70
2024-02-13T00:25:14.013Z,19.60
2024-02-13T00:28:14.985Z,15.50
2024-02-13T00:31:15.954Z,13.20
2024-02-13T00:34:20.207Z,17.10
2024-02-13T00:37:23.822Z,16.30
2024-02-13T00:40:24.871Z,16.20
2024-02-13T00:43:27.251Z,16.50
2024-02-13T00:46:30.032Z,15.70
2024-02-13T00:49:31.127Z,19.90
2024-02-13T00:52:32.950Z,16.40
2024-02-13T00:55:33.876Z,18.80
2024-02-13T00:58:36.668Z,17.60
2024-02-13T01:01:38.268Z,18.10
2024-02-13T01:04:39.193Z,21.20
2024-02-13T01:07:40.529Z,19.60
2024-02-13T01:10:41.991Z,14.90
2024-02-13T01:13:43.068Z,17.10
2024-02-13T01:16:44.995Z,16.80
2024-02-13T01:19:47.736Z,19.30
2024-02-13T01:22:48.759Z,19.30
2024-02-13T01:25:49.738Z,19.70
2024-02-13T01:28:50.704Z,15.20
2024-02-13T01:31:52.498Z,15.20
2024-02-13T01:34:53.912Z,19.90
2024-02-13T01:37:57.075Z,15.00
2024-02-13T01:40:58.636Z,17.00
2024-02-13T01:44:00.965Z,17.70
2024-02-13T01:47:02.868Z,15.00
2024-02-13T01:50:07.064Z,14.90
2024-02-13T01:53:08.113Z,18.80
2024-02-13T01:56:10.488Z,19.70
2024-02-13T01:59:14.922Z,17.90
2024-02-13T02:02:16.181Z,17.60
2024-02-13T02:05:17.697Z,17.40
2024-02-13T02:08:19.244Z,16.20
2024-02-13T02:11:20.522Z,16.40
2024-02-13T02:14:22.789Z,16.40
2024-02-13T02:17:23.934Z,14.90
2024-02-13T02:20:25.095Z,14.90
2024-02-13T02:23:27.260Z,15.90
2024-02-13T02:26:28.373Z,18.50
2024-02-13T02:29:31.548Z,16.60
2024-02-13T02:32:33.086Z,17.00
2024-02-13T02:35:34.349Z,18.50
2024-02-13T02:38:38.907Z,18.30
2024-02-13T02:41:40.019Z,14.00
2024-02-13T02:44:42.018Z,17.20
2024-02-13T02:47:43.587Z,15.70
2024-02-13T02:50:44.764Z,13.40
2024-02-13T02:53:45.752Z,14.80
2024-02-13T02:56:46.821Z,14.50
2024-02-13T02:59:48.109Z,15.40
2024-02-13T03:02:49.494Z,13.50
2024-02-13T03:05:52.148Z,14.10
2024-02-13T03:08:53.255Z,16.60
2024-02-13T03:11:54.307Z,16.60
2024-02-13T03:14:56.637Z,16.60
2024-02-13T03:17:58.449Z,14.60
2024-02-13T03:20:59.690Z,15.40
2024-02-13T03:24:00.644Z,14.50
2024-02-13T03:27:02.367Z,15.10
2024-02-13T03:30:03.982Z,16.50
2024-02-13T03:33:05.120Z,16.50
2024-02-13T03:36:06.571Z,16.00
2024-02-13T03:39:07.622Z,16.10
2024-02-13T03:42:09.490Z,13.10
2024-02-13T03:45:11.313Z,15.60
2024-02-13T03:48:12.421Z,15.60
2024-02-13T03:51:13.943Z,19.30
2024-02-13T03:54:14.980Z,14.60
2024-02-13T03:57:15.949Z,15.80
2024-02-13T04:00:18.198Z,14.60
2024-02-13T04:03:19.129Z,16.10
2024-02-13T04:06:20.540Z,14.30
2024-02-13T04:09:21.659Z,16.70
2024-02-13T04:12:22.946Z,14.30
2024-02-13T04:15:23.897Z,13.10
2024-02-13T04:18:25.069Z,16.20
2024-02-13T04:21:26.105Z,14.40
2024-02-13T04:24:27.085Z,12.20
2024-02-13T04:27:28.106Z,14.20
2024-02-13T04:30:29.056Z,13.90
2024-02-13T04:33:30.135Z,14.70
2024-02-13T04:36:32.286Z,13.00
2024-02-13T04:39:33.307Z,15.60
2024-02-13T04:42:35.973Z,16.10
2024-02-13T04:45:37.165Z,15.90
2024-02-13T04:48:38.254Z,14.50
2024-02-13T04:51:39.399Z,13.70
2024-02-13T04:54:40.365Z,14.30
2024-02-13T04:57:41.288Z,14.20
2024-02-13T05:00:51.768Z,14.10
2024-02-13T05:03:55.424Z,16.00
2024-02-13T05:07:15.036Z,13.90
2024-02-13T05:10:16.152Z,13.80
2024-02-13T05:13:18.637Z,12.30
2024-02-13T05:16:19.551Z,13.70
2024-02-13T05:19:21.728Z,13.60
2024-02-13T05:22:22.774Z,14.30
2024-02-13T05:25:23.714Z,11.40
2024-02-13T05:28:24.732Z,13.20
2024-02-13T05:31:26.012Z,14.00
2024-02-13T05:34:27.040Z,14.10
2024-02-13T05:37:28.318Z,12.40
2024-02-13T05:40:29.872Z,16.70
2024-02-13T05:43:31.044Z,11.90
2024-02-13T05:46:32.259Z,17.80
2024-02-13T05:49:34.270Z,23.50
2024-02-13T05:52:36.489Z,30.20
2024-02-13T05:55:37.690Z,21.90
2024-02-13T05:58:39.416Z,22.70
2024-02-13T06:01:40.415Z,15.90
2024-02-13T06:04:42.454Z,21.30
2024-02-13T06:07:44.679Z,24.00
2024-02-13T06:10:45.759Z,20.10
2024-02-13T06:13:47.098Z,17.30
2024-02-13T06:16:48.071Z,19.80
2024-02-13T06:19:49.204Z,20.10
2024-02-13T06:22:50.316Z,18.20
2024-02-13T06:25:51.296Z,17.30
2024-02-13T06:28:52.868Z,16.10
2024-02-13T06:31:55.591Z,22.10
2024-02-13T06:34:56.760Z,15.20
2024-02-13T06:37:59.816Z,14.30
2024-02-13T06:41:01.325Z,14.40
2024-02-13T06:44:03.860Z,12.20
2024-02-13T06:47:07.523Z,27.50
2024-02-13T06:50:12.753Z,11.70
2024-02-13T06:53:14.273Z,15.20
2024-02-13T06:56:16.669Z,20.80
2024-02-13T06:59:17.840Z,10.60
2024-02-13T07:02:19.029Z,15.70
2024-02-13T07:05:20.280Z,21.00
2024-02-13T07:08:21.520Z,23.00
2024-02-13T07:11:22.811Z,19.60
2024-02-13T07:14:25.621Z,16.90
2024-02-13T07:17:27.978Z,16.90
2024-02-13T07:20:29.285Z,14.00
2024-02-13T07:23:30.636Z,17.70
2024-02-13T07:26:31.654Z,16.70
2024-02-13T07:29:33.003Z,18.40
2024-02-13T07:32:34.876Z,17.40
2024-02-13T07:35:36.594Z,13.80
2024-02-13T07:38:37.598Z,14.70
2024-02-13T07:41:38.702Z,14.80
2024-02-13T07:44:39.855Z,18.20
2024-02-13T07:47:42.080Z,15.80
2024-02-13T07:50:43.082Z,12.30
2024-02-13T07:53:44.558Z,13.30
2024-02-13T07:56:46.420Z,8.90
2024-02-13T07:59:47.522Z,12.50
2024-02-13T08:02:49.954Z,11.20
2024-02-13T08:05:51.656Z,13.20
2024-02-13T08:08:52.872Z,11.30
2024-02-13T08:11:54.574Z,11.70
2024-02-13T08:14:55.720Z,11.40
2024-02-13T08:17:57.522Z,12.80
2024-02-13T08:20:59.591Z,13.40
2024-02-13T08:24:00.748Z,10.30
2024-02-13T08:27:02.250Z,10.60
2024-02-13T08:30:10.409Z,12.60
2024-02-13T08:33:11.693Z,11.50
2024-02-13T08:36:12.850Z,11.00
2024-02-13T08:39:13.822Z,15.60
2024-02-13T08:42:14.750Z,11.00
2024-02-13T08:45:15.861Z,10.50
2024-02-13T08:48:17.177Z,12.50
2024-02-13T08:51:25.627Z,15.10
2024-02-13T08:54:26.584Z,11.70
2024-02-13T08:57:27.575Z,10.30
2024-02-13T09:00:29.620Z,10.00
2024-02-13T09:03:30.571Z,14.70
2024-02-13T09:06:32.751Z,10.50
2024-02-13T09:09:35.314Z,10.90
2024-02-13T09:12:36.313Z,11.30
2024-02-13T09:15:37.292Z,11.10
2024-02-13T09:18:38.918Z,12.90
2024-02-13T09:21:40.800Z,13.80
2024-02-13T09:24:44.625Z,11.90
2024-02-13T09:27:48.635Z,9.80
2024-02-13T09:30:51.022Z,16.30
2024-02-13T09:33:52.088Z,33.00
2024-02-13T09:36:53.194Z,47.90
2024-02-13T09:39:55.671Z,25.20
2024-02-13T09:42:56.741Z,17.30
2024-02-13T09:45:57.700Z,19.70
2024-02-13T09:48:59.968Z,21.90
2024-02-13T09:52:07.947Z,18.40
2024-02-13T09:55:10.061Z,18.20
2024-02-13T09:58:11.789Z,17.00
2024-02-13T10:01:13.584Z,18.60
2024-02-13T10:04:14.899Z,15.80
2024-02-13T10:07:15.988Z,21.50
2024-02-13T10:10:17.032Z,18.30
2024-02-13T10:13:18.615Z,21.20
2024-02-13T10:16:24.114Z,11.70
2024-02-13T10:19:28.467Z,18.40
2024-02-13T10:22:31.099Z,12.70
2024-02-13T10:25:33.584Z,15.80
2024-02-13T10:28:35.001Z,12.50
2024-02-13T10:31:36.585Z,12.30
2024-02-13T10:34:38.634Z,14.50
2024-02-13T10:37:40.303Z,12.40
2024-02-13T10:40:43.918Z,12.60
2024-02-13T10:43:47.191Z,15.80
2024-02-13T10:46:49.679Z,11.70
2024-02-13T10:49:54.648Z,11.00
2024-02-13T10:52:55.831Z,18.00
2024-02-13T10:55:58.361Z,14.90
2024-02-13T10:58:59.522Z,16.10
2024-02-13T11:02:02.406Z,9.60
2024-02-13T11:05:09.673Z,13.30
2024-02-13T11:08:13.884Z,14.30
2024-02-13T11:11:17.301Z,15.20
2024-02-13T11:14:22.772Z,22.80
2024-02-13T11:17:32.186Z,20.50
2024-02-13T11:20:38.384Z,20.00
2024-02-13T11:23:50.186Z,29.10
2024-02-13T11:26:51.256Z,29.30
2024-02-13T11:30:24.086Z,36.10
2024-02-13T11:33:25.162Z,92.30
2024-02-13T11:36:30.152Z,44.70
2024-02-13T11:39:31.472Z,25.80
2024-02-13T11:42:35.941Z,19.90
2024-02-13T11:45:36.900Z,16.90
2024-02-13T11:48:40.213Z,18.70
2024-02-13T11:51:42.495Z,20.10
2024-02-13T11:54:50.985Z,25.30
2024-02-13T11:57:51.969Z,24.80
2024-02-13T12:01:01.312Z,30.50
2024-02-13T12:04:02.488Z,21.50
2024-02-13T12:07:04.358Z,19.40
2024-02-13T12:10:07.678Z,26.90
2024-02-13T12:13:12.201Z,24.10
2024-02-13T12:16:15.144Z,21.50
2024-02-13T12:19:17.613Z,25.50
2024-02-13T12:22:18.956Z,25.20
2024-02-13T12:25:20.310Z,22.60
2024-02-13T12:28:21.974Z,26.50
2024-02-13T12:31:23.828Z,25.70
2024-02-13T12:34:26.325Z,28.70
2024-02-13T12:37:31.644Z,41.20
2024-02-13T12:40:33.319Z,27.20
2024-02-13T12:43:34.346Z,20.40
2024-02-13T12:46:37.540Z,24.40
2024-02-13T12:49:39.482Z,22.90
2024-02-13T12:52:40.585Z,15.50
2024-02-13T12:55:54.082Z,21.10
2024-02-13T12:58:55.038Z,17.20
2024-02-13T13:01:59.546Z,34.70
2024-02-13T13:05:02.800Z,28.10
2024-02-13T13:08:05.617Z,24.70
2024-02-13T13:11:06.628Z,17.70
2024-02-13T13:14:08.885Z,21.10
2024-02-13T13:17:11.924Z,31.40
2024-02-13T13:20:18.626Z,31.60
2024-02-13T13:23:21.308Z,31.40
2024-02-13T13:26:24.339Z,23.00
2024-02-13T13:29:25.374Z,19.50
2024-02-13T13:32:27.020Z,20.00
2024-02-13T13:35:29.752Z,21.10
2024-02-13T13:38:31.127Z,23.40
2024-02-13T13:41:33.563Z,20.50
2024-02-13T13:44:34.748Z,17.30
2024-02-13T13:47:35.762Z,14.60
2024-02-13T13:50:39.738Z,19.90
2024-02-13T13:53:40.917Z,24.30
2024-02-13T13:56:42.131Z,20.90
2024-02-13T13:59:43.302Z,12.80
2024-02-13T14:02:44.379Z,16.90
2024-02-13T14:05:45.691Z,15.90
2024-02-13T14:08:46.890Z,12.30
2024-02-13T14:11:47.984Z,17.80
2024-02-13T14:14:49.194Z,20.50
2024-02-13T14:17:50.291Z,21.00
2024-02-13T14:20:53.074Z,23.10
2024-02-13T14:23:57.505Z,20.60
2024-02-13T14:26:58.668Z,17.40
2024-02-13T14:29:59.828Z,19.10
2024-02-13T14:33:07.565Z,29.10
2024-02-13T14:36:09.090Z,24.30
2024-02-13T14:39:17.341Z,29.90
2024-02-13T14:42:18.522Z,20.80
2024-02-13T14:45:20.866Z,19.50
2024-02-13T14:48:21.934Z,17.60
2024-02-13T14:51:23.096Z,19.90
2024-02-13T14:54:24.118Z,20.80
2024-02-13T14:57:25.120Z,20.90
2024-02-13T15:00:27.486Z,20.00
2024-02-13T15:03:28.581Z,21.10
2024-02-13T15:06:30.094Z,18.80
2024-02-13T15:09:31.310Z,24.70
2024-02-13T15:12:32.322Z,14.20
2024-02-13T15:15:34.257Z,22.40
2024-02-13T15:18:37.386Z,23.10
2024-02-13T15:21:38.428Z,18.80
2024-02-13T15:24:40.119Z,22.30
2024-02-13T15:27:41.070Z,19.80
2024-02-13T15:30:42.031Z,12.70
2024-02-13T15:33:43.370Z,11.80
2024-02-13T15:37:02.439Z,11.00
2024-02-13T15:40:23.430Z,22.00
2024-02-13T15:43:42.936Z,26.00
2024-02-13T15:46:59.010Z,25.50
2024-02-13T15:50:01.970Z,25.10
2024-02-13T15:53:03.694Z,17.20
2024-02-13T15:56:06.412Z,14.60
2024-02-13T15:59:10.099Z,18.20
2024-02-13T16:02:11.372Z,19.80
2024-02-13T16:05:15.540Z,21.20
2024-02-13T16:08:16.485Z,22.50
2024-02-13T16:11:18.242Z,18.00
2024-02-13T16:14:19.446Z,20.00
2024-02-13T16:17:21.436Z,22.60
2024-02-13T16:20:22.728Z,46.80
2024-02-13T16:23:23.937Z,22.90
2024-02-13T16:26:27.500Z,59.10
2024-02-13T16:29:29.121Z,57.80
2024-02-13T16:32:36.218Z,25.60
2024-02-13T16:35:41.382Z,32.50
2024-02-13T16:38:43.202Z,37.80
2024-02-13T16:41:49.583Z,34.10
2024-02-13T16:44:51.678Z,61.20
2024-02-13T16:47:52.813Z,47.50
2024-02-13T16:50:53.915Z,573.50
2024-02-13T16:53:55.101Z,88.80
2024-02-13T16:56:59.321Z,51.60
2024-02-13T17:00:03.517Z,106.80
2024-02-13T17:03:04.979Z,45.10
2024-02-13T17:06:08.881Z,120.80
2024-02-13T17:09:10.713Z,214.20
2024-02-13T17:12:12.672Z,168.60
2024-02-13T17:15:14.071Z,309.10
2024-02-13T17:18:15.762Z,30.80
2024-02-13T17:21:17.355Z,91.70
2024-02-13T17:24:18.456Z,172.40
2024-02-13T17:27:19.494Z,115.90
2024-02-13T17:30:20.586Z,174.80
2024-02-13T17:33:21.704Z,243.50
2024-02-13T17:36:23.310Z,254.90
2024-02-13T17:39:24.241Z,207.80
2024-02-13T17:42:25.449Z,191.20
2024-02-13T17:45:26.591Z,77.60
2024-02-13T17:48:27.957Z,209.00
2024-02-13T17:51:28.998Z,132.00
2024-02-13T17:54:29.963Z,150.10
2024-02-13T17:57:30.901Z,189.20
2024-02-13T18:00:35.692Z,67.60
2024-02-13T18:03:37.002Z,115.90
2024-02-13T18:06:38.340Z,145.20
2024-02-13T18:09:39.344Z,103.10
2024-02-13T18:12:43.465Z,75.30
2024-02-13T18:15:46.760Z,67.40
2024-02-13T18:18:48.076Z,118.90
2024-02-13T18:21:50.090Z,45.30
2024-02-13T18:24:51.187Z,28.30
2024-02-13T18:27:52.795Z,34.00
2024-02-13T18:30:53.756Z,31.20
2024-02-13T18:33:55.002Z,31.70
2024-02-13T18:36:56.565Z,43.30
2024-02-13T18:39:57.521Z,43.10
2024-02-13T18:42:58.528Z,66.50
2024-02-13T18:45:59.822Z,83.30
2024-02-13T18:49:00.989Z,60.90
2024-02-13T18:52:02.272Z,72.00
2024-02-13T18:55:10.393Z,81.50
2024-02-13T18:58:11.628Z,36.10
2024-02-13T19:01:12.716Z,59.30
2024-02-13T19:04:13.716Z,82.60
2024-02-13T19:07:14.797Z,68.20
2024-02-13T19:10:15.793Z,45.80
2024-02-13T19:13:16.805Z,46.60
2024-02-13T19:16:17.750Z,54.60
2024-02-13T19:19:18.841Z,43.60
2024-02-13T19:22:19.831Z,40.30
2024-02-13T19:25:20.925Z,58.90
2024-02-13T19:28:22.831Z,34.70
2024-02-13T19:31:25.017Z,24.20
2024-02-13T19:34:28.269Z,41.10
2024-02-13T19:37:31.177Z,40.70
2024-02-13T19:40:32.516Z,42.80
2024-02-13T19:43:33.513Z,40.40
2024-02-13T19:46:34.632Z,31.90
2024-02-13T19:49:36.404Z,37.40
2024-02-13T19:52:37.463Z,41.10
2024-02-13T19:55:38.724Z,22.80
2024-02-13T19:58:39.737Z,20.30
2024-02-13T20:01:40.816Z,23.30
2024-02-13T20:04:42.037Z,24.50
2024-02-13T20:07:43.327Z,31.70
2024-02-13T20:10:45.597Z,21.10
2024-02-13T20:13:47.013Z,26.00
2024-02-13T20:16:48.366Z,18.90
2024-02-13T20:19:49.383Z,23.80
2024-02-13T20:22:50.461Z,23.70
2024-02-13T20:25:51.953Z,19.90
2024-02-13T20:28:52.948Z,24.30
2024-02-13T20:31:54.519Z,18.90
2024-02-13T20:34:55.914Z,13.20
2024-02-13T20:37:58.375Z,19.20
2024-02-13T20:40:59.458Z,16.20
2024-02-13T20:44:00.906Z,18.60
2024-02-13T20:47:01.864Z,15.30
2024-02-13T20:50:07.585Z,25.10
2024-02-13T20:53:08.577Z,9.70
2024-02-13T20:56:09.569Z,137.20
2024-02-13T20:59:10.804Z,24.30
2024-02-13T21:02:13.275Z,185.90
2024-02-13T21:05:14.316Z,242.10
2024-02-13T21:08:15.301Z,197.10
2024-02-13T21:11:17.374Z,157.80
2024-02-13T21:14:18.384Z,120.70
2024-02-13T21:17:19.425Z,244.50
2024-02-13T21:20:27.807Z,259.40
2024-02-13T21:23:47.624Z,145.20
2024-02-13T21:26:49.480Z,115.20
2024-02-13T21:29:50.939Z,83.10
2024-02-13T21:32:52.046Z,44.40
2024-02-13T21:35:53.127Z,14.50
2024-02-13T21:38:54.231Z,91.00
2024-02-13T21:41:55.234Z,67.00
2024-02-13T21:44:58.639Z,93.90
2024-02-13T21:48:01.638Z,30.70
2024-02-13T21:51:02.844Z,67.90
2024-02-13T21:54:05.418Z,60.90
2024-02-13T21:57:07.104Z,31.90
2024-02-13T22:00:09.379Z,101.20
2024-02-13T22:03:10.539Z,56.10
2024-02-13T22:06:12.692Z,79.90
2024-02-13T22:09:13.940Z,21.50
2024-02-13T22:12:14.889Z,25.50
2024-02-13T22:15:19.197Z,116.00
2024-02-13T22:18:26.186Z,60.70
2024-02-13T22:21:27.977Z,58.10
2024-02-13T22:24:30.834Z,58.20
2024-02-13T22:27:31.907Z,47.20
2024-02-13T22:30:33.880Z,45.50
2024-02-13T22:33:35.357Z,46.30
2024-02-13T22:36:36.566Z,50.90
2024-02-13T22:39:37.588Z,33.60
2024-02-13T22:42:38.545Z,24.70
2024-02-13T22:45:39.550Z,29.60
2024-02-13T22:48:40.727Z,41.00
2024-02-13T22:51:45.008Z,38.10
2024-02-13T22:54:46.554Z,23.60
2024-02-13T22:57:47.655Z,22.70
2024-02-13T23:00:57.547Z,49.30
2024-02-13T23:04:00.873Z,88.10
2024-02-13T23:07:01.991Z,52.50
2024-02-13T23:10:04.586Z,51.60
2024-02-13T23:13:05.576Z,41.90
2024-02-13T23:16:08.011Z,40.20
2024-02-13T23:19:10.889Z,50.50
2024-02-13T23:22:13.949Z,53.80
2024-02-13T23:25:15.190Z,58.40
2024-02-13T23:28:16.933Z,70.80
2024-02-13T23:31:19.427Z,48.80
2024-02-13T23:34:20.539Z,35.20
2024-02-13T23:37:21.610Z,46.20
2024-02-13T23:40:22.566Z,42.40
2024-02-13T23:43:23.567Z,43.60
2024-02-13T23:46:25.699Z,35.40
2024-02-13T23:49:27.426Z,42.30
2024-02-13T23:52:28.436Z,34.30
2024-02-13T23:55:29.456Z,52.50
2024-02-13T23:58:32.763Z,37.00
